createdAt,value
2018-03-23T00:01:18.814Z,9.37
2018-03-23T00:03:46.374Z,11.00
2018-03-23T00:06:13.944Z,9.90
2018-03-23T00:08:41.504Z,9.63
2018-03-23T00:11:09.081Z,11.40
2018-03-23T00:13:37.400Z,8.83
2018-03-23T00:16:05.043Z,11.47
2018-03-23T00:18:32.602Z,9.97
2018-03-23T00:21:00.156Z,9.00
2018-03-23T00:23:27.838Z,14.67
2018-03-23T00:25:55.425Z,10.13
2018-03-23T00:28:22.979Z,10.47
2018-03-23T00:30:50.536Z,11.40
2018-03-23T00:33:18.128Z,12.40
2018-03-23T00:35:46.461Z,12.70
2018-03-23T00:38:14.012Z,14.33
2018-03-23T00:40:41.593Z,14.33
2018-03-23T00:43:09.177Z,11.27
2018-03-23T00:45:36.752Z,14.30
2018-03-23T00:48:05.076Z,11.40
2018-03-23T00:50:32.657Z,11.67
2018-03-23T00:53:00.204Z,19.30
2018-03-23T00:55:27.756Z,18.43
2018-03-23T00:57:55.333Z,12.03
2018-03-23T01:00:22.908Z,14.03
2018-03-23T01:02:50.465Z,11.00
2018-03-23T01:05:18.033Z,10.07
2018-03-23T01:07:45.591Z,15.53
2018-03-23T01:10:13.180Z,13.10
2018-03-23T01:12:40.748Z,13.03
2018-03-23T01:15:08.344Z,14.83
2018-03-23T01:17:35.904Z,13.57
2018-03-23T01:20:03.465Z,11.57
2018-03-23T01:22:31.053Z,17.77
2018-03-23T01:24:58.636Z,13.07
2018-03-23T01:27:26.204Z,10.80
2018-03-23T01:29:53.771Z,12.53
2018-03-23T01:32:21.348Z,12.23
2018-03-23T01:34:48.900Z,15.80
2018-03-23T01:37:16.476Z,13.10
2018-03-23T01:39:44.024Z,11.70
2018-03-23T01:42:11.605Z,14.33
2018-03-23T01:44:39.176Z,11.13
2018-03-23T01:47:06.724Z,13.47
2018-03-23T01:49:34.318Z,17.17
2018-03-23T01:52:02.641Z,12.00
2018-03-23T01:54:30.306Z,13.03
2018-03-23T01:56:57.893Z,12.07
2018-03-23T01:59:25.449Z,11.47
2018-03-23T02:01:53.031Z,14.30
2018-03-23T02:04:20.648Z,12.63
2018-03-23T02:06:48.219Z,14.10
2018-03-23T02:09:15.772Z,15.50
2018-03-23T02:11:43.352Z,14.53
2018-03-23T02:14:10.900Z,11.17
2018-03-23T02:16:38.489Z,15.40
2018-03-23T02:19:06.073Z,15.17
2018-03-23T02:21:34.414Z,14.50
2018-03-23T02:24:01.957Z,14.60
2018-03-23T02:26:29.528Z,13.00
2018-03-23T02:28:57.088Z,14.77
2018-03-23T02:31:24.669Z,12.40
2018-03-23T02:33:52.996Z,13.00
2018-03-23T02:36:20.577Z,11.83
2018-03-23T02:38:48.132Z,13.17
2018-03-23T02:41:15.716Z,13.40
2018-03-23T02:43:43.268Z,14.07
2018-03-23T02:46:10.848Z,15.13
2018-03-23T02:48:38.395Z,16.40
2018-03-23T02:51:05.958Z,10.87
2018-03-23T02:53:33.527Z,13.77
2018-03-23T02:56:01.888Z,20.60
2018-03-23T02:58:29.457Z,17.37
2018-03-23T03:00:57.011Z,15.70
2018-03-23T03:03:24.605Z,13.17
2018-03-23T03:05:52.165Z,16.37
2018-03-23T03:08:19.740Z,16.10
2018-03-23T03:10:47.320Z,18.77
2018-03-23T03:13:14.877Z,14.97
2018-03-23T03:15:42.456Z,15.10
2018-03-23T03:18:10.009Z,15.77
2018-03-23T03:20:37.580Z,14.00
2018-03-23T03:23:05.157Z,14.83
2018-03-23T03:25:32.715Z,19.80
2018-03-23T03:28:00.284Z,17.40
2018-03-23T03:30:27.840Z,17.17
2018-03-23T03:32:55.416Z,18.00
2018-03-23T03:35:23.741Z,19.37
2018-03-23T03:37:51.316Z,15.87
2018-03-23T03:40:18.879Z,20.83
2018-03-23T03:42:46.428Z,20.57
2018-03-23T03:45:14.028Z,19.30
2018-03-23T03:47:42.345Z,16.73
2018-03-23T03:50:09.904Z,21.77
2018-03-23T03:52:37.492Z,24.70
2018-03-23T03:55:05.066Z,16.97
2018-03-23T03:57:32.636Z,18.93
2018-03-23T04:00:00.231Z,16.47
2018-03-23T04:02:27.787Z,18.80
2018-03-23T04:04:55.342Z,19.20
2018-03-23T04:07:22.931Z,21.80
2018-03-23T04:09:50.496Z,17.40
2018-03-23T04:12:18.057Z,15.43
2018-03-23T04:14:45.642Z,18.10
2018-03-23T04:17:13.196Z,17.47
2018-03-23T04:19:40.815Z,18.70
2018-03-23T04:22:08.364Z,23.20
2018-03-23T04:24:35.939Z,18.60
2018-03-23T04:27:03.525Z,13.90
2018-03-23T04:29:31.107Z,15.67
2018-03-23T04:31:58.661Z,16.63
2018-03-23T04:34:26.252Z,17.23
2018-03-23T04:36:54.572Z,16.10
2018-03-23T04:39:22.132Z,15.10
2018-03-23T04:41:49.706Z,13.60
2018-03-23T04:44:17.260Z,14.77
2018-03-23T04:46:44.830Z,11.47
2018-03-23T04:49:12.389Z,14.00
2018-03-23T04:51:39.964Z,15.73
2018-03-23T04:54:07.521Z,12.13
2018-03-23T04:56:35.068Z,16.57
2018-03-23T04:59:02.668Z,17.83
2018-03-23T05:01:30.220Z,13.23
2018-03-23T05:03:58.556Z,17.13
2018-03-23T05:06:26.115Z,13.87
2018-03-23T05:08:54.456Z,16.70
2018-03-23T05:11:22.008Z,18.57
2018-03-23T05:13:49.560Z,20.23
2018-03-23T05:16:17.132Z,16.90
2018-03-23T05:18:44.724Z,18.43
2018-03-23T05:21:12.284Z,19.87
2018-03-23T05:23:40.596Z,17.63
2018-03-23T05:26:08.179Z,22.10
2018-03-23T05:28:35.736Z,25.60
2018-03-23T05:31:04.061Z,19.13
2018-03-23T05:33:32.409Z,21.40
2018-03-23T05:35:59.964Z,18.80
2018-03-23T05:38:27.545Z,21.90
2018-03-23T05:40:55.129Z,17.57
2018-03-23T05:43:22.711Z,20.47
2018-03-23T05:45:50.301Z,17.83
2018-03-23T05:48:18.632Z,16.37
2018-03-23T05:50:46.205Z,20.77
2018-03-23T05:53:14.597Z,19.40
2018-03-23T05:55:42.150Z,21.93
2018-03-23T05:58:09.752Z,20.50
2018-03-23T06:00:38.077Z,19.80
2018-03-23T06:03:05.631Z,15.80
2018-03-23T06:05:33.980Z,16.83
2018-03-23T06:08:01.536Z,19.77
2018-03-23T06:10:29.136Z,17.17
2018-03-23T06:12:56.720Z,17.63
2018-03-23T06:15:24.271Z,14.60
2018-03-23T06:17:52.609Z,16.73
2018-03-23T06:20:20.937Z,17.43
2018-03-23T06:22:48.556Z,19.60
2018-03-23T06:25:16.100Z,16.97
2018-03-23T06:27:43.669Z,16.63
2018-03-23T06:30:11.224Z,14.50
2018-03-23T06:32:38.800Z,17.40
2018-03-23T06:35:06.381Z,18.27
2018-03-23T06:37:34.729Z,13.80
2018-03-23T06:40:02.281Z,12.07
2018-03-23T06:42:29.840Z,15.50
2018-03-23T06:44:57.416Z,13.57
2018-03-23T06:47:24.965Z,13.00
2018-03-23T06:49:52.540Z,13.93
2018-03-23T06:52:20.096Z,11.87
2018-03-23T06:54:47.640Z,11.63
2018-03-23T06:57:15.223Z,14.10
2018-03-23T06:59:42.786Z,10.10
2018-03-23T07:02:10.368Z,10.30
2018-03-23T07:04:38.715Z,12.87
2018-03-23T07:07:06.292Z,11.97
2018-03-23T07:09:34.612Z,9.83
2018-03-23T07:12:02.793Z,13.90
2018-03-23T07:14:30.360Z,13.33
2018-03-23T07:16:57.925Z,14.27
2018-03-23T07:19:25.523Z,15.97
2018-03-23T07:21:53.887Z,13.00
2018-03-23T07:24:22.204Z,16.43
2018-03-23T07:26:49.756Z,15.60
2018-03-23T07:29:18.100Z,20.53
2018-03-23T07:31:45.669Z,16.80
2018-03-23T07:34:13.220Z,17.37
2018-03-23T07:36:40.792Z,18.23
2018-03-23T07:39:08.352Z,18.00
2018-03-23T07:41:35.929Z,20.33
2018-03-23T07:44:04.248Z,18.30
2018-03-23T07:46:31.820Z,19.90
2018-03-23T07:48:59.379Z,21.90
2018-03-23T07:51:26.981Z,19.30
2018-03-23T07:53:54.533Z,18.53
2018-03-23T07:56:22.086Z,19.93
2018-03-23T07:58:49.677Z,19.10
2018-03-23T08:01:17.987Z,21.67
2018-03-23T08:03:45.553Z,24.00
2018-03-23T08:06:13.121Z,22.07
2018-03-23T08:08:40.668Z,23.27
2018-03-23T08:11:08.240Z,19.40
2018-03-23T08:13:35.792Z,23.57
2018-03-23T08:16:04.128Z,22.00
2018-03-23T08:18:31.724Z,20.00
2018-03-23T08:20:59.388Z,22.70
2018-03-23T08:23:26.953Z,23.60
2018-03-23T08:25:54.525Z,24.53
2018-03-23T08:28:22.869Z,26.90
2018-03-23T08:30:50.445Z,24.07
2018-03-23T08:33:18.012Z,22.97
2018-03-23T08:35:45.568Z,24.53
2018-03-23T08:38:13.919Z,21.73
2018-03-23T08:40:41.480Z,19.50
2018-03-23T08:43:09.033Z,20.97
2018-03-23T08:45:36.611Z,19.03
2018-03-23T08:48:04.196Z,22.40
2018-03-23T08:50:31.777Z,22.30
2018-03-23T08:52:59.338Z,22.37
2018-03-23T08:55:26.916Z,20.00
2018-03-23T08:57:54.464Z,24.50
2018-03-23T09:00:22.035Z,22.50
2018-03-23T09:02:49.597Z,22.10
2018-03-23T09:05:17.174Z,19.60
2018-03-23T09:07:44.763Z,16.80
2018-03-23T09:10:12.348Z,18.93
2018-03-23T09:12:39.905Z,20.13
2018-03-23T09:15:07.484Z,17.87
2018-03-23T09:17:35.066Z,18.40
2018-03-23T09:20:02.619Z,20.93
2018-03-23T09:22:30.209Z,20.87
2018-03-23T09:24:57.780Z,20.30
2018-03-23T09:27:25.364Z,20.07
2018-03-23T09:29:52.916Z,17.27
2018-03-23T09:32:20.495Z,16.23
2018-03-23T09:34:48.100Z,16.00
2018-03-23T09:37:15.687Z,24.47
2018-03-23T09:39:44.041Z,18.47
2018-03-23T09:42:11.609Z,27.20
2018-03-23T09:44:39.184Z,19.93
2018-03-23T09:47:06.763Z,19.43
2018-03-23T09:49:35.116Z,20.93
2018-03-23T09:52:02.743Z,21.87
2018-03-23T09:54:30.272Z,19.17
2018-03-23T09:56:57.871Z,16.17
2018-03-23T09:59:25.448Z,19.50
2018-03-23T10:01:53.038Z,19.10
2018-03-23T10:04:21.352Z,17.83
2018-03-23T10:06:48.915Z,20.13
2018-03-23T10:09:16.484Z,21.13
2018-03-23T10:11:44.073Z,20.40
2018-03-23T10:14:11.634Z,18.60
2018-03-23T10:16:39.198Z,19.23
2018-03-23T10:19:06.787Z,14.33
2018-03-23T10:21:35.152Z,17.07
2018-03-23T10:24:02.732Z,15.27
2018-03-23T10:26:30.293Z,16.93
2018-03-23T10:28:58.669Z,17.67
2018-03-23T10:31:26.204Z,24.60
2018-03-23T10:33:53.783Z,18.43
2018-03-23T10:36:22.119Z,23.10
2018-03-23T10:38:49.731Z,22.87
2018-03-23T10:41:17.311Z,12.60
2018-03-23T10:43:44.891Z,17.03
2018-03-23T10:46:12.470Z,11.07
2018-03-23T10:48:40.039Z,9.80
2018-03-23T10:51:07.589Z,9.97
2018-03-23T10:53:35.160Z,7.70
2018-03-23T10:56:02.708Z,9.80
2018-03-23T10:58:30.280Z,26.37
2018-03-23T11:01:03.617Z,8.60
2018-03-23T11:03:31.186Z,6.83
2018-03-23T11:05:58.740Z,5.70
2018-03-23T11:08:26.432Z,7.13
2018-03-23T11:10:53.977Z,6.80
2018-03-23T11:13:21.525Z,6.20
2018-03-23T11:15:49.101Z,5.53
2018-03-23T11:18:16.651Z,6.67
2018-03-23T11:20:44.200Z,6.20
2018-03-23T11:23:11.774Z,6.20
2018-03-23T11:25:39.356Z,6.50
2018-03-23T11:28:06.917Z,5.47
2018-03-23T11:30:34.472Z,5.13
2018-03-23T11:33:02.044Z,6.23
2018-03-23T11:35:29.592Z,5.00
2018-03-23T11:37:57.199Z,5.70
2018-03-23T11:40:25.512Z,6.73
2018-03-23T11:42:53.084Z,6.80
2018-03-23T11:45:20.670Z,6.20
2018-03-23T11:47:48.254Z,6.27
2018-03-23T11:50:16.562Z,6.17
2018-03-23T11:52:44.169Z,16.63
2018-03-23T11:55:11.716Z,5.80
2018-03-23T11:57:39.267Z,6.60
2018-03-23T12:00:06.867Z,6.20
2018-03-23T12:02:35.176Z,5.80
2018-03-23T12:05:02.745Z,6.13
2018-03-23T12:07:30.344Z,7.13
2018-03-23T12:09:57.897Z,8.07
2018-03-23T12:12:25.464Z,34.97
2018-03-23T12:14:53.044Z,7.33
2018-03-23T12:17:21.388Z,6.70
2018-03-23T12:19:48.952Z,8.57
2018-03-23T12:22:16.516Z,6.87
2018-03-23T12:24:44.074Z,7.17
2018-03-23T12:27:11.648Z,7.20
2018-03-23T12:29:39.196Z,6.00
2018-03-23T12:32:06.787Z,6.47
2018-03-23T12:34:35.100Z,6.43
2018-03-23T12:37:02.648Z,7.07
2018-03-23T12:39:30.237Z,6.37
2018-03-23T12:41:57.794Z,7.57
2018-03-23T12:44:25.369Z,6.10
2018-03-23T12:46:52.967Z,5.83
2018-03-23T12:49:21.308Z,6.90
2018-03-23T12:51:48.851Z,6.10
2018-03-23T12:54:16.397Z,7.77
2018-03-23T12:56:43.961Z,7.47
2018-03-23T12:59:11.509Z,7.40
2018-03-23T13:01:39.075Z,7.07
2018-03-23T13:04:06.625Z,9.00
2018-03-23T13:06:34.180Z,6.43
2018-03-23T13:09:01.764Z,5.53
2018-03-23T13:11:29.319Z,6.30
2018-03-23T13:13:56.868Z,5.50
2018-03-23T13:16:24.443Z,6.23
2018-03-23T13:18:52.025Z,5.87
2018-03-23T13:21:19.584Z,5.50
2018-03-23T13:23:47.149Z,6.50
2018-03-23T13:26:14.702Z,4.63
2018-03-23T13:28:42.284Z,4.50
2018-03-23T13:31:10.612Z,5.50
2018-03-23T13:33:38.165Z,4.93
2018-03-23T13:36:05.728Z,4.23
2018-03-23T13:38:33.285Z,34.10
2018-03-23T13:41:00.876Z,6.37
2018-03-23T13:43:28.437Z,4.80
2018-03-23T13:45:56.004Z,4.00
2018-03-23T13:48:23.655Z,50.97
2018-03-23T13:50:51.206Z,5.80
2018-03-23T13:53:18.755Z,5.27
2018-03-23T13:55:46.328Z,5.73
2018-03-23T13:58:13.953Z,4.70
2018-03-23T14:00:47.144Z,5.63
2018-03-23T14:03:14.725Z,4.50
2018-03-23T14:05:42.276Z,3.73
2018-03-23T14:08:09.834Z,5.20
2018-03-23T14:10:37.424Z,4.40
2018-03-23T14:13:04.981Z,4.87
2018-03-23T14:15:32.552Z,4.60
2018-03-23T14:18:00.110Z,12.10
2018-03-23T14:20:27.705Z,5.73
2018-03-23T14:22:56.031Z,4.40
2018-03-23T14:25:24.392Z,4.00
2018-03-23T14:27:51.975Z,4.80
2018-03-23T14:30:19.536Z,3.90
2018-03-23T14:32:47.116Z,3.73
2018-03-23T14:35:14.668Z,3.70
2018-03-23T14:37:42.224Z,3.53
2018-03-23T14:40:09.796Z,4.43
2018-03-23T14:42:37.352Z,3.57
2018-03-23T14:45:04.924Z,4.50
2018-03-23T14:47:32.496Z,4.53
2018-03-23T14:50:00.805Z,4.47
2018-03-23T14:52:28.440Z,4.27
2018-03-23T14:54:55.960Z,4.03
2018-03-23T14:57:23.536Z,3.73
2018-03-23T14:59:51.103Z,3.77
2018-03-23T15:02:18.648Z,4.20
2018-03-23T15:04:46.238Z,4.27
2018-03-23T15:07:14.544Z,5.90
2018-03-23T15:09:42.111Z,4.43
2018-03-23T15:12:09.664Z,4.10
2018-03-23T15:14:37.240Z,4.23
2018-03-23T15:17:04.783Z,4.90
2018-03-23T15:19:32.334Z,5.00
2018-03-23T15:21:59.907Z,3.90
2018-03-23T15:24:27.489Z,4.37
2018-03-23T15:26:55.043Z,5.57
2018-03-23T15:29:22.634Z,4.40
2018-03-23T15:31:50.178Z,4.93
2018-03-23T15:34:17.732Z,4.03
2018-03-23T15:36:45.303Z,7.40
2018-03-23T15:39:12.861Z,5.03
2018-03-23T15:41:40.443Z,4.33
2018-03-23T15:44:08.757Z,4.50
2018-03-23T15:46:36.305Z,6.57
2018-03-23T15:49:03.989Z,10.13
2018-03-23T15:51:31.591Z,5.40
2018-03-23T15:53:59.168Z,5.50
2018-03-23T15:56:27.524Z,14.77
2018-03-23T15:58:55.856Z,4.70
2018-03-23T16:01:24.172Z,18.83
2018-03-23T16:03:52.531Z,7.77
2018-03-23T16:06:20.857Z,8.27
2018-03-23T16:08:48.400Z,7.30
2018-03-23T16:11:15.981Z,5.07
2018-03-23T16:13:43.536Z,5.87
2018-03-23T16:16:11.121Z,5.80
2018-03-23T16:18:38.708Z,5.50
2018-03-23T16:21:06.288Z,5.93
2018-03-23T16:23:34.609Z,5.90
2018-03-23T16:26:02.175Z,5.10
2018-03-23T16:28:29.765Z,5.13
2018-03-23T16:30:58.091Z,5.03
2018-03-23T16:33:25.640Z,5.90
2018-03-23T16:35:53.206Z,5.50
2018-03-23T16:38:20.784Z,5.43
2018-03-23T16:40:48.337Z,6.00
2018-03-23T16:43:15.901Z,8.70
2018-03-23T16:45:43.477Z,8.13
2018-03-23T16:48:11.036Z,5.33
2018-03-23T16:50:38.625Z,6.63
2018-03-23T16:53:06.196Z,5.43
2018-03-23T16:55:34.506Z,6.00
2018-03-23T16:58:02.091Z,5.67
2018-03-23T17:00:29.692Z,9.50
2018-03-23T17:02:58.013Z,6.70
2018-03-23T17:05:25.564Z,5.80
2018-03-23T17:07:53.141Z,5.43
2018-03-23T17:10:20.693Z,6.17
2018-03-23T17:12:48.289Z,6.47
2018-03-23T17:15:15.837Z,6.33
2018-03-23T17:17:43.394Z,4.60
2018-03-23T17:20:10.998Z,6.47
2018-03-23T17:22:38.552Z,5.60
2018-03-23T17:25:06.896Z,6.80
2018-03-23T17:27:34.483Z,5.90
2018-03-23T17:30:02.833Z,6.40
2018-03-23T17:32:30.438Z,6.63
2018-03-23T17:34:57.993Z,6.70
2018-03-23T17:37:26.315Z,8.57
2018-03-23T17:39:53.883Z,6.40
2018-03-23T17:42:21.440Z,7.23
2018-03-23T17:44:49.832Z,5.90
2018-03-23T17:47:17.745Z,6.90
2018-03-23T17:49:45.334Z,6.50
2018-03-23T17:52:12.912Z,5.40
2018-03-23T17:54:40.480Z,6.90
2018-03-23T17:57:08.022Z,7.07
2018-03-23T17:59:35.600Z,6.67
2018-03-23T18:02:03.193Z,7.73
2018-03-23T18:04:31.516Z,8.20
2018-03-23T18:06:59.090Z,6.67
2018-03-23T18:09:26.669Z,7.23
2018-03-23T18:11:54.249Z,7.60
2018-03-23T18:14:22.589Z,6.67
2018-03-23T18:16:50.175Z,6.73
2018-03-23T18:19:17.725Z,6.00
2018-03-23T18:21:45.270Z,6.53
2018-03-23T18:24:12.843Z,8.13
2018-03-23T18:26:40.400Z,7.67
2018-03-23T18:29:07.986Z,8.27
2018-03-23T18:31:36.301Z,8.10
2018-03-23T18:34:03.858Z,12.07
2018-03-23T18:36:31.423Z,6.60
2018-03-23T18:38:59.007Z,11.33
2018-03-23T18:41:26.556Z,7.10
2018-03-23T18:43:54.129Z,10.70
2018-03-23T18:46:21.691Z,7.10
2018-03-23T18:48:49.269Z,8.13
2018-03-23T18:51:16.821Z,8.83
2018-03-23T18:53:44.415Z,8.37
2018-03-23T18:56:12.740Z,7.93
2018-03-23T18:58:40.324Z,7.90
2018-03-23T19:01:07.930Z,12.27
2018-03-23T19:03:35.496Z,12.93
2018-03-23T19:06:03.053Z,11.30
2018-03-23T19:08:30.634Z,12.43
2018-03-23T19:10:58.195Z,10.77
2018-03-23T19:13:25.803Z,10.67
2018-03-23T19:15:54.139Z,8.50
2018-03-23T19:18:21.712Z,10.30
2018-03-23T19:20:49.307Z,8.60
2018-03-23T19:23:16.909Z,8.17
2018-03-23T19:25:44.480Z,7.30
2018-03-23T19:28:12.057Z,9.73
2018-03-23T19:30:39.648Z,9.63
2018-03-23T19:33:07.258Z,12.90
2018-03-23T19:35:34.892Z,11.70
2018-03-23T19:38:02.489Z,10.50
2018-03-23T19:40:30.048Z,8.80
2018-03-23T19:42:57.649Z,12.10
2018-03-23T19:45:25.973Z,10.30
2018-03-23T19:47:54.733Z,10.03
2018-03-23T19:50:22.292Z,6.93
2018-03-23T19:52:49.852Z,7.00
2018-03-23T19:55:17.432Z,6.83
2018-03-23T19:57:44.986Z,6.90
2018-03-23T20:00:12.596Z,6.50
2018-03-23T20:02:40.959Z,10.53
2018-03-23T20:05:08.552Z,7.60
2018-03-23T20:07:36.889Z,10.33
2018-03-23T20:10:04.480Z,7.23
2018-03-23T20:12:32.815Z,6.33
2018-03-23T20:15:00.394Z,6.40
2018-03-23T20:17:33.703Z,6.83
2018-03-23T20:20:02.505Z,8.27
2018-03-23T20:22:30.856Z,8.83
2018-03-23T20:24:58.419Z,8.03
2018-03-23T20:27:31.679Z,7.40
2018-03-23T20:29:59.236Z,8.70
2018-03-23T20:32:32.406Z,8.90
2018-03-23T20:34:59.988Z,9.07
2018-03-23T20:37:27.541Z,9.70
2018-03-23T20:39:55.197Z,8.30
2018-03-23T20:42:22.771Z,9.10
2018-03-23T20:44:50.355Z,9.47
2018-03-23T20:47:17.918Z,8.73
2018-03-23T20:49:45.545Z,10.53
2018-03-23T20:52:13.101Z,8.37
2018-03-23T20:54:40.689Z,7.57
2018-03-23T20:57:09.029Z,7.20
2018-03-23T20:59:36.584Z,9.20
2018-03-23T21:02:04.941Z,8.53
2018-03-23T21:04:32.496Z,11.40
2018-03-23T21:07:00.057Z,12.37
2018-03-23T21:09:27.660Z,7.60
2018-03-23T21:11:55.213Z,7.70
2018-03-23T21:14:22.815Z,8.67
2018-03-23T21:16:50.406Z,10.20
2018-03-23T21:19:18.739Z,7.90
2018-03-23T21:21:46.307Z,7.13
2018-03-23T21:24:13.864Z,8.13
2018-03-23T21:26:41.441Z,7.53
2018-03-23T21:29:09.001Z,7.30
2018-03-23T21:31:36.584Z,7.80
2018-03-23T21:34:04.214Z,9.40
2018-03-23T21:36:31.864Z,6.63
2018-03-23T21:38:59.452Z,10.00
2018-03-23T21:41:27.018Z,7.90
2018-03-23T21:43:54.601Z,7.93
2018-03-23T21:46:22.928Z,8.07
2018-03-23T21:48:50.481Z,7.37
2018-03-23T21:51:18.063Z,10.93
2018-03-23T21:53:45.621Z,8.50
2018-03-23T21:56:13.202Z,11.03
2018-03-23T21:58:40.766Z,7.90
2018-03-23T22:01:09.109Z,8.67
2018-03-23T22:03:36.677Z,8.93
2018-03-23T22:06:04.313Z,8.83
2018-03-23T22:08:31.852Z,9.33
2018-03-23T22:10:59.412Z,10.60
2018-03-23T22:13:27.018Z,10.10
2018-03-23T22:15:54.584Z,10.57
2018-03-23T22:18:22.141Z,10.77
2018-03-23T22:20:49.723Z,12.23
2018-03-23T22:23:18.097Z,7.33
2018-03-23T22:25:45.678Z,11.80
2018-03-23T22:28:14.036Z,9.33
2018-03-23T22:30:41.596Z,13.23
2018-03-23T22:33:09.191Z,10.90
2018-03-23T22:35:36.749Z,12.17
2018-03-23T22:38:04.307Z,11.10
2018-03-23T22:40:31.900Z,10.07
2018-03-23T22:42:59.478Z,11.20
2018-03-23T22:45:27.041Z,11.67
2018-03-23T22:47:54.632Z,11.97
2018-03-23T22:50:22.956Z,12.33
2018-03-23T22:52:50.544Z,10.90
2018-03-23T22:55:18.125Z,11.87
2018-03-23T22:57:46.443Z,11.57
2018-03-23T23:00:14.000Z,14.30
2018-03-23T23:02:41.574Z,12.20
2018-03-23T23:05:09.163Z,10.23
2018-03-23T23:07:36.716Z,12.70
2018-03-23T23:10:04.279Z,12.17
2018-03-23T23:12:31.862Z,13.17
2018-03-23T23:15:00.186Z,12.43
2018-03-23T23:17:27.784Z,16.50
2018-03-23T23:19:55.348Z,12.23
2018-03-23T23:22:22.912Z,14.90
2018-03-23T23:24:50.489Z,14.57
2018-03-23T23:27:18.821Z,11.10
2018-03-23T23:29:46.408Z,14.10
2018-03-23T23:32:13.968Z,15.70
2018-03-23T23:34:41.528Z,13.53
2018-03-23T23:37:09.106Z,12.60
2018-03-23T23:39:37.460Z,12.60
2018-03-23T23:42:05.061Z,14.40
2018-03-23T23:44:33.388Z,17.43
2018-03-23T23:47:00.944Z,13.00
2018-03-23T23:49:30.173Z,13.83
2018-03-23T23:51:57.760Z,11.40
2018-03-23T23:54:25.312Z,17.50
2018-03-23T23:56:53.660Z,14.53
2018-03-23T23:59:21.224Z,15.37
